Time;durP1;ratioP1;P1;durP2;ratioP2;P2;SDS_P1;SDS_P2;PMS_P1;PMS_P2;Temp;Humidity;BMP_temperature;BMP_pressure;BME280_temperature;BME280_humidity;BME280_pressure;Samples;Min_cycle;Max_cycle;Signal;HPM_P1;HPM_P2
2021/12/19 00:01:52;;;;;;;4.45;3.00;;;8.40;99.90;;;;;;5120000;27;20482;-73
2021/12/19 00:04:40;;;;;;;5.38;2.83;;;8.40;99.90;;;;;;5136384;27;20042;-72
2021/12/19 00:09:50;;;;;;;5.22;2.53;;;8.40;99.90;;;;;;5137774;27;20209;-73
2021/12/19 00:12:16;;;;;;;6.63;3.00;;;8.40;99.90;;;;;;5134005;27;20103;-73
2021/12/19 00:14:42;;;;;;;4.13;2.97;;;8.40;99.90;;;;;;5122768;27;20049;-72
2021/12/19 00:17:08;;;;;;;5.50;3.35;;;8.40;99.90;;;;;;5122836;27;20043;-73
2021/12/19 00:19:33;;;;;;;5.22;2.95;;;8.40;99.90;;;;;;5122252;27;20054;-73
2021/12/19 00:21:59;;;;;;;6.47;3.72;;;8.40;99.90;;;;;;5123327;27;20046;-73
2021/12/19 00:24:24;;;;;;;5.53;3.75;;;8.40;99.90;;;;;;5123018;27;20055;-73
2021/12/19 00:26:51;;;;;;;7.60;4.22;;;8.40;99.90;;;;;;5141171;27;20049;-73
2021/12/19 00:29:16;;;;;;;5.40;3.45;;;8.50;99.90;;;;;;5141466;27;20087;-73
2021/12/19 00:31:45;;;;;;;6.82;4.15;;;8.50;99.90;;;;;;5122340;27;20050;-74
2021/12/19 00:34:12;;;;;;;8.27;3.75;;;8.50;99.90;;;;;;5119594;27;20061;-73
2021/12/19 00:36:37;;;;;;;7.72;4.40;;;8.50;99.90;;;;;;5135210;27;20051;-73
2021/12/19 00:39:04;;;;;;;7.78;4.13;;;8.50;99.90;;;;;;5113935;27;20049;-73
2021/12/19 00:41:29;;;;;;;4.72;4.05;;;8.50;99.90;;;;;;5115820;27;20337;-73
2021/12/19 00:44:06;;;;;;;6.55;5.20;;;8.40;99.90;;;;;;5118322;27;20521;-73
2021/12/19 00:46:42;;;;;;;8.30;5.55;;;8.40;99.90;;;;;;5115661;27;20046;-72
2021/12/19 00:49:07;;;;;;;9.20;5.18;;;8.40;99.90;;;;;;5115571;27;20042;-73
2021/12/19 00:51:33;;;;;;;10.38;5.28;;;8.40;99.90;;;;;;5134381;27;20912;-74
2021/12/19 00:53:58;;;;;;;9.93;4.07;;;8.40;99.90;;;;;;5116598;27;20066;-73
2021/12/19 00:56:25;;;;;;;8.82;5.20;;;8.40;99.90;;;;;;5134654;27;20811;-73
2021/12/19 00:58:51;;;;;;;6.30;3.75;;;8.40;99.90;;;;;;5116724;27;20493;-73
2021/12/19 01:01:16;;;;;;;5.30;2.92;;;8.40;99.90;;;;;;5130019;27;20050;-73
2021/12/19 01:03:44;;;;;;;2.20;1.67;;;7.80;99.90;;;;;;5133729;27;20034;-72
2021/12/19 01:06:10;;;;;;;4.38;2.00;;;8.40;99.90;;;;;;5114887;27;20051;-72
2021/12/19 01:08:35;;;;;;;1.98;1.52;;;8.40;99.90;;;;;;5115187;27;20477;-73
2021/12/19 01:11:01;;;;;;;3.42;1.73;;;8.40;99.90;;;;;;5115684;27;20099;-73
2021/12/19 01:13:27;;;;;;;3.63;2.13;;;8.40;99.90;;;;;;5112274;27;20084;-73
2021/12/19 01:15:53;;;;;;;3.53;1.30;;;8.30;99.90;;;;;;5114867;27;20054;-73
2021/12/19 01:18:19;;;;;;;2.47;1.20;;;8.40;99.90;;;;;;5114101;27;20831;-73
2021/12/19 01:20:45;;;;;;;2.47;1.40;;;8.30;99.90;;;;;;5134033;27;20049;-72
2021/12/19 01:23:12;;;;;;;2.08;1.27;;;8.30;99.90;;;;;;5115922;27;20047;-73
2021/12/19 01:25:38;;;;;;;2.00;0.95;;;8.30;99.90;;;;;;5115259;27;20039;-73
2021/12/19 01:28:04;;;;;;;3.60;1.48;;;8.30;99.90;;;;;;5113618;27;20042;-72
2021/12/19 01:30:30;;;;;;;2.38;1.20;;;8.30;99.90;;;;;;5115844;27;20066;-73
2021/12/19 01:32:56;;;;;;;2.45;0.88;;;8.20;99.90;;;;;;5116098;27;20051;-73
2021/12/19 01:35:24;;;;;;;1.75;0.77;;;8.20;99.90;;;;;;5114875;27;20588;-73
2021/12/19 01:37:50;;;;;;;1.10;0.70;;;8.20;99.90;;;;;;5137062;27;20046;-73
2021/12/19 01:40:18;;;;;;;1.40;0.95;;;8.20;99.90;;;;;;5115396;27;20077;-73
2021/12/19 01:42:45;;;;;;;1.23;0.75;;;8.10;99.90;;;;;;5133966;27;20042;-73
2021/12/19 01:45:13;;;;;;;0.98;0.70;;;8.20;99.90;;;;;;5114881;27;20056;-73
2021/12/19 01:47:40;;;;;;;0.73;0.70;;;8.20;99.90;;;;;;5115200;27;20038;-73
2021/12/19 01:50:08;;;;;;;1.10;1.00;;;8.20;99.90;;;;;;5132158;27;20085;-73
2021/12/19 01:52:34;;;;;;;3.65;0.75;;;8.20;99.90;;;;;;5115821;27;20046;-72
2021/12/19 01:55:00;;;;;;;1.10;0.80;;;8.20;99.90;;;;;;5115332;27;20058;-72
2021/12/19 01:57:26;;;;;;;1.08;1.00;;;8.20;99.90;;;;;;5114820;27;20378;-73
2021/12/19 01:59:53;;;;;;;1.40;0.80;;;8.20;99.90;;;;;;5116106;27;20073;-73
2021/12/19 02:02:18;;;;;;;1.02;0.70;;;8.20;99.90;;;;;;5114647;27;20042;-73
2021/12/19 02:04:44;;;;;;;0.60;0.60;;;8.20;99.90;;;;;;5114842;27;20057;-72
2021/12/19 02:07:11;;;;;;;1.40;0.50;;;8.10;99.90;;;;;;5115148;27;20917;-72
2021/12/19 02:09:38;;;;;;;1.52;0.70;;;8.10;99.90;;;;;;5133493;27;20067;-73
2021/12/19 02:12:04;;;;;;;0.82;0.60;;;8.10;99.90;;;;;;5134418;27;20039;-74
2021/12/19 02:14:30;;;;;;;1.33;0.63;;;8.10;99.90;;;;;;5134602;27;20730;-73
2021/12/19 02:16:56;;;;;;;1.48;0.45;;;8.10;99.90;;;;;;5134260;27;20099;-73
2021/12/19 02:19:24;;;;;;;2.08;0.90;;;8.00;99.90;;;;;;5134400;27;20576;-73
2021/12/19 02:21:50;;;;;;;0.80;0.80;;;8.10;99.90;;;;;;5115733;27;20081;-74
2021/12/19 02:24:15;;;;;;;1.63;1.33;;;8.10;99.90;;;;;;5134479;27;20053;-73
2021/12/19 02:26:41;;;;;;;1.20;1.10;;;8.00;99.90;;;;;;5135029;27;20051;-74
2021/12/19 02:29:07;;;;;;;1.65;1.08;;;8.10;99.90;;;;;;5116347;27;20531;-74
2021/12/19 02:31:33;;;;;;;0.68;0.68;;;8.10;99.90;;;;;;5133360;27;20046;-74
2021/12/19 02:50:13;;;;;;;1.15;0.65;;;8.00;99.90;;;;;;5116891;27;20107;-76
2021/12/19 02:52:38;;;;;;;1.02;0.93;;;8.00;99.90;;;;;;5135657;27;20050;-73
2021/12/19 02:55:06;;;;;;;1.35;0.70;;;7.90;99.90;;;;;;5136046;27;20039;-73
2021/12/19 02:57:32;;;;;;;1.38;0.80;;;7.90;99.90;;;;;;5121277;27;20051;-73
2021/12/19 02:59:58;;;;;;;1.02;0.50;;;7.80;99.90;;;;;;5116283;27;20043;-73
2021/12/19 03:02:24;;;;;;;2.15;0.70;;;7.80;99.90;;;;;;5136030;27;20768;-74
2021/12/19 03:04:54;;;;;;;5.30;1.13;;;7.80;99.90;;;;;;5136272;27;20047;-73
2021/12/19 03:07:20;;;;;;;1.65;0.63;;;7.60;99.90;;;;;;5129264;27;20087;-74
2021/12/19 03:10:04;;;;;;;0.60;0.60;;;7.80;99.90;;;;;;5117596;27;20190;-74
2021/12/19 03:18:10;;;;;;;1.75;0.60;;;7.80;99.90;;;;;;5121806;27;20054;-73
2021/12/19 03:20:37;;;;;;;0.57;0.57;;;7.80;99.90;;;;;;5114017;27;20046;-73
2021/12/19 03:23:04;;;;;;;0.73;0.70;;;7.80;99.90;;;;;;5139841;27;20047;-73
2021/12/19 03:25:32;;;;;;;1.40;0.57;;;7.80;99.90;;;;;;5114210;27;20062;-73
2021/12/19 03:27:59;;;;;;;0.88;0.65;;;7.70;99.90;;;;;;5139192;27;20050;-74
2021/12/19 03:30:25;;;;;;;2.50;0.90;;;7.80;99.90;;;;;;5120869;27;20053;-73
2021/12/19 03:32:50;;;;;;;1.08;0.70;;;7.80;99.90;;;;;;5140145;27;20051;-72
2021/12/19 03:35:16;;;;;;;2.10;1.25;;;7.80;99.90;;;;;;5120641;27;20046;-74
2021/12/19 03:37:43;;;;;;;2.88;0.63;;;7.70;99.90;;;;;;5123109;27;20046;-73
2021/12/19 03:40:12;;;;;;;1.20;0.70;;;7.70;99.90;;;;;;5139820;27;20042;-74
2021/12/19 03:42:46;;;;;;;3.22;1.45;;;7.70;99.90;;;;;;5133253;27;20042;-73
2021/12/19 03:45:16;;;;;;;3.13;0.90;;;7.80;99.90;;;;;;5133296;27;20046;-74
2021/12/19 03:47:42;;;;;;;3.30;1.42;;;7.70;99.90;;;;;;5135945;27;20424;-73
2021/12/19 03:50:11;;;;;;;1.50;0.88;;;7.70;99.90;;;;;;5120032;27;20549;-73
2021/12/19 03:52:37;;;;;;;2.85;1.27;;;7.70;99.90;;;;;;5120131;27;20797;-73
2021/12/19 03:55:04;;;;;;;2.17;1.17;;;7.70;99.90;;;;;;5121542;27;20144;-74
2021/12/19 03:57:29;;;;;;;1.33;0.73;;;7.70;99.90;;;;;;5138485;27;20754;-73
2021/12/19 03:59:55;;;;;;;2.88;1.38;;;7.70;99.90;;;;;;5120605;27;20043;-73
2021/12/19 04:02:28;;;;;;;2.35;1.10;;;7.70;99.90;;;;;;5122819;27;20176;-73
2021/12/19 04:04:55;;;;;;;2.30;0.90;;;7.70;99.90;;;;;;5116306;27;20111;-73
2021/12/19 04:07:22;;;;;;;4.63;1.40;;;7.70;99.90;;;;;;5123540;27;20594;-73
2021/12/19 04:09:48;;;;;;;1.10;1.00;;;7.70;99.90;;;;;;5122760;27;20150;-74
2021/12/19 04:12:15;;;;;;;3.00;1.65;;;7.70;99.90;;;;;;5135343;27;20121;-74
2021/12/19 04:14:41;;;;;;;2.03;1.10;;;7.70;99.90;;;;;;5122957;27;20157;-73
2021/12/19 04:17:06;;;;;;;2.78;1.23;;;7.70;99.90;;;;;;5122684;27;20130;-74
2021/12/19 04:19:32;;;;;;;1.10;1.00;;;7.70;99.90;;;;;;5141787;27;20687;-75
2021/12/19 04:21:59;;;;;;;3.70;1.67;;;8.60;99.90;;;;;;5141574;27;20119;-74
2021/12/19 04:24:25;;;;;;;6.28;1.52;;;7.70;99.90;;;;;;5140924;27;20043;-75
2021/12/19 04:26:51;;;;;;;2.42;1.40;;;7.70;99.90;;;;;;5122559;27;20043;-75
2021/12/19 04:29:16;;;;;;;4.97;1.60;;;7.80;99.90;;;;;;5140590;27;20775;-75
2021/12/19 04:31:42;;;;;;;5.38;1.80;;;7.80;99.90;;;;;;5141032;27;20042;-74
2021/12/19 04:34:08;;;;;;;4.18;1.40;;;7.70;99.90;;;;;;5141630;27;20054;-75
2021/12/19 04:36:39;;;;;;;4.07;1.48;;;7.80;99.90;;;;;;5141157;27;20037;-76
2021/12/19 04:42:57;;;;;;;4.80;2.25;;;7.80;99.90;;;;;;5141421;27;20055;-75
2021/12/19 05:01:03;;;;;;;6.28;3.55;;;7.80;99.90;;;;;;5140652;27;20155;-74
2021/12/19 05:03:41;;;;;;;9.15;3.72;;;7.80;99.90;;;;;;5122643;27;20149;-74
2021/12/19 05:14:10;;;;;;;11.02;3.88;;;7.90;99.90;;;;;;5140560;27;20053;-75
2021/12/19 05:16:39;;;;;;;7.32;4.43;;;7.90;99.90;;;;;;5141071;27;20074;-75
2021/12/19 05:19:17;;;;;;;15.98;4.50;;;7.90;99.90;;;;;;5121896;27;20047;-75
2021/12/19 05:21:43;;;;;;;6.63;3.88;;;7.90;99.90;;;;;;5139729;27;20046;-75
2021/12/19 05:26:53;;;;;;;13.05;4.88;;;7.90;99.90;;;;;;5139983;27;20077;-75
2021/12/19 05:29:18;;;;;;;11.43;4.80;;;8.00;99.90;;;;;;5139960;27;20486;-75
2021/12/19 05:31:44;;;;;;;12.88;4.55;;;8.00;99.90;;;;;;5122152;27;20077;-75
2021/12/19 05:34:11;;;;;;;12.50;4.72;;;8.00;99.90;;;;;;5121741;27;20043;-75
2021/12/19 05:47:23;;;;;;;10.48;5.03;;;8.00;99.90;;;;;;5121825;27;20074;-74
2021/12/19 05:49:49;;;;;;;11.25;5.10;;;8.10;99.90;;;;;;5120789;27;20154;-75
2021/12/19 05:52:15;;;;;;;10.25;5.40;;;8.10;99.90;;;;;;5121598;27;20039;-75
2021/12/19 05:54:40;;;;;;;14.60;5.60;;;8.00;99.90;;;;;;5140731;27;20050;-75
2021/12/19 05:57:06;;;;;;;12.88;6.85;;;8.00;99.90;;;;;;5139189;27;20046;-75
2021/12/19 05:59:32;;;;;;;12.10;5.47;;;8.00;99.90;;;;;;5121438;27;20050;-76
2021/12/19 06:01:58;;;;;;;15.05;5.80;;;8.00;99.90;;;;;;5140204;27;20039;-75
2021/12/19 06:04:23;;;;;;;9.23;5.43;;;8.10;99.90;;;;;;5120919;27;20602;-76
2021/12/19 06:06:51;;;;;;;5.50;4.32;;;8.10;99.90;;;;;;5121512;27;20054;-75
2021/12/19 06:09:17;;;;;;;9.57;4.47;;;8.10;99.90;;;;;;5139630;27;20054;-76
2021/12/19 06:11:42;;;;;;;8.93;4.63;;;8.10;99.90;;;;;;5140325;27;20054;-75
2021/12/19 06:14:08;;;;;;;5.85;4.00;;;8.10;99.90;;;;;;5121703;27;20979;-75
2021/12/19 06:16:33;;;;;;;7.70;4.15;;;8.10;99.90;;;;;;5120778;27;20054;-76
2021/12/19 06:18:59;;;;;;;7.93;4.72;;;8.10;99.90;;;;;;5139752;27;20043;-76
2021/12/19 06:21:25;;;;;;;10.77;5.57;;;8.10;99.90;;;;;;5139951;27;20055;-76
2021/12/19 06:23:50;;;;;;;10.93;4.85;;;8.10;99.90;;;;;;5120564;27;20458;-76
2021/12/19 06:26:16;;;;;;;10.60;4.25;;;8.10;99.90;;;;;;5121431;27;20050;-75
2021/12/19 06:28:43;;;;;;;8.70;4.68;;;8.10;99.90;;;;;;5120171;27;20051;-75
2021/12/19 06:31:08;;;;;;;10.90;4.95;;;8.10;99.90;;;;;;5115026;27;20074;-75
2021/12/19 06:33:34;;;;;;;6.95;4.00;;;8.10;99.90;;;;;;5121085;27;20138;-75
2021/12/19 06:36:00;;;;;;;9.38;4.30;;;8.10;99.90;;;;;;5120969;27;20406;-75
2021/12/19 06:38:26;;;;;;;9.65;3.78;;;8.10;99.90;;;;;;5120578;27;20042;-75
2021/12/19 06:40:51;;;;;;;9.95;3.97;;;8.10;99.90;;;;;;5139819;27;20051;-75
2021/12/19 06:43:17;;;;;;;10.80;4.45;;;8.10;99.90;;;;;;5121487;27;20047;-75
2021/12/19 06:45:43;;;;;;;14.55;5.95;;;8.10;99.90;;;;;;5121365;27;20054;-75
2021/12/19 06:48:08;;;;;;;12.43;4.55;;;8.20;99.90;;;;;;5140680;27;20042;-76
2021/12/19 06:50:34;;;;;;;15.95;5.43;;;8.10;99.90;;;;;;5120893;27;20099;-75
2021/12/19 06:52:59;;;;;;;6.30;3.65;;;8.10;99.90;;;;;;5142151;27;20149;-76
2021/12/19 06:55:26;;;;;;;11.15;5.03;;;8.10;99.90;;;;;;5124575;27;20449;-75
2021/12/19 06:57:51;;;;;;;8.25;4.47;;;8.00;99.90;;;;;;5124313;27;20054;-75
2021/12/19 07:00:20;;;;;;;10.30;5.18;;;8.00;99.90;;;;;;5121420;27;20049;-76
2021/12/19 07:02:46;;;;;;;9.25;4.45;;;8.10;99.90;;;;;;5139918;27;20900;-76
2021/12/19 07:05:11;;;;;;;5.65;2.88;;;8.00;99.90;;;;;;5121459;27;20466;-75
2021/12/19 07:07:38;;;;;;;10.60;3.55;;;8.00;99.90;;;;;;5120946;27;20133;-76
2021/12/19 07:10:05;;;;;;;8.10;3.67;;;8.00;99.90;;;;;;5121277;27;20122;-77
2021/12/19 07:12:31;;;;;;;8.70;3.40;;;8.00;99.90;;;;;;5120634;27;20062;-76
2021/12/19 07:14:57;;;;;;;7.25;2.97;;;8.00;99.90;;;;;;5137952;27;20540;-75
2021/12/19 07:17:23;;;;;;;8.48;3.35;;;8.00;99.90;;;;;;5120977;27;20058;-75
2021/12/19 07:19:49;;;;;;;7.47;4.90;;;8.10;99.90;;;;;;5137214;27;20814;-75
2021/12/19 07:22:15;;;;;;;10.55;3.10;;;8.00;99.90;;;;;;5119613;27;20039;-75
2021/12/19 07:24:41;;;;;;;11.13;4.00;;;8.00;99.90;;;;;;5117626;27;20133;-75
2021/12/19 07:27:06;;;;;;;11.57;3.58;;;8.10;99.90;;;;;;5138115;27;20046;-75
2021/12/19 07:29:32;;;;;;;10.95;3.40;;;8.10;99.90;;;;;;5138662;27;20042;-74
2021/12/19 07:31:58;;;;;;;11.93;3.30;;;8.10;99.90;;;;;;5137392;27;20507;-75
2021/12/19 07:34:31;;;;;;;9.48;4.38;;;8.00;99.90;;;;;;5136558;27;20046;-75
2021/12/19 07:36:57;;;;;;;10.63;3.15;;;8.10;99.90;;;;;;5138373;27;20138;-75
2021/12/19 07:42:03;;;;;;;7.13;3.55;;;8.10;99.90;;;;;;5134345;27;20899;-75
2021/12/19 07:44:29;;;;;;;7.63;3.42;;;8.10;99.90;;;;;;5137012;27;20046;-75
2021/12/19 07:46:55;;;;;;;7.55;3.90;;;8.10;99.90;;;;;;5118114;27;20043;-75
2021/12/19 07:49:20;;;;;;;5.03;3.22;;;8.10;99.90;;;;;;5138484;27;20091;-75
2021/12/19 07:51:46;;;;;;;5.13;3.20;;;8.10;99.90;;;;;;5120826;27;20103;-75
2021/12/19 07:54:12;;;;;;;11.23;4.20;;;8.10;99.90;;;;;;5120684;27;20081;-75
2021/12/19 07:56:37;;;;;;;7.65;3.20;;;8.10;99.90;;;;;;5120117;27;20440;-75
2021/12/19 07:59:03;;;;;;;9.48;3.47;;;8.10;99.90;;;;;;5121312;27;20053;-75
2021/12/19 08:01:29;;;;;;;8.20;4.25;;;8.10;99.90;;;;;;5139631;27;20816;-75
2021/12/19 08:03:54;;;;;;;9.73;3.22;;;8.10;99.90;;;;;;5139327;27;20134;-76
2021/12/19 08:06:20;;;;;;;7.93;2.83;;;8.10;99.90;;;;;;5120725;27;20051;-75
2021/12/19 08:08:51;;;;;;;4.47;2.90;;;8.10;99.90;;;;;;5120649;27;20042;-75
2021/12/19 08:14:01;;;;;;;6.63;3.78;;;8.10;99.90;;;;;;5120381;27;20372;-75
2021/12/19 08:16:26;;;;;;;7.00;2.78;;;8.10;99.90;;;;;;5120844;27;21031;-74
2021/12/19 08:18:52;;;;;;;6.93;3.33;;;8.10;99.90;;;;;;5120558;27;20053;-74
2021/12/19 08:21:19;;;;;;;9.05;2.88;;;8.10;99.90;;;;;;5139679;27;20051;-75
2021/12/19 08:23:45;;;;;;;9.18;3.97;;;8.10;99.90;;;;;;5138768;27;20592;-75
2021/12/19 08:26:10;;;;;;;8.98;3.42;;;8.10;99.90;;;;;;5119880;27;20039;-75
2021/12/19 08:28:36;;;;;;;7.72;3.13;;;8.10;99.90;;;;;;5119314;27;20042;-75
2021/12/19 08:31:02;;;;;;;6.70;2.78;;;8.10;99.90;;;;;;5138566;27;20031;-75
2021/12/19 08:33:28;;;;;;;5.47;2.53;;;8.10;99.90;;;;;;5122345;27;20049;-75
2021/12/19 08:35:53;;;;;;;10.95;3.65;;;8.20;99.90;;;;;;5122226;27;20038;-75
2021/12/19 08:38:19;;;;;;;9.38;3.40;;;8.20;99.90;;;;;;5138979;27;20049;-75
2021/12/19 08:40:47;;;;;;;7.55;3.22;;;8.20;99.90;;;;;;5122101;27;20966;-75
2021/12/19 08:43:13;;;;;;;10.50;3.38;;;8.20;99.90;;;;;;5141195;27;20466;-75
2021/12/19 08:45:39;;;;;;;8.93;3.50;;;8.30;99.90;;;;;;5140336;27;20041;-75
2021/12/19 08:48:05;;;;;;;10.55;3.30;;;8.20;99.90;;;;;;5122267;27;20417;-74
2021/12/19 08:50:31;;;;;;;9.45;3.92;;;8.30;99.90;;;;;;5140652;27;20053;-74
2021/12/19 08:52:57;;;;;;;6.63;3.22;;;8.30;99.90;;;;;;5121638;27;20047;-75
2021/12/19 08:55:22;;;;;;;8.13;2.90;;;8.30;99.90;;;;;;5141048;27;20397;-75
2021/12/19 08:57:48;;;;;;;5.47;3.75;;;8.30;99.90;;;;;;5121447;27;20074;-75
2021/12/19 09:00:14;;;;;;;9.32;3.30;;;8.30;99.90;;;;;;5139469;27;20529;-75
2021/12/19 09:02:43;;;;;;;15.30;3.97;;;8.40;99.90;;;;;;5140348;27;20043;-73
2021/12/19 09:05:09;;;;;;;6.75;4.38;;;8.40;99.90;;;;;;5119842;27;20057;-75
2021/12/19 09:07:35;;;;;;;11.13;2.85;;;8.10;99.90;;;;;;5120455;27;20084;-74
2021/12/19 09:10:01;;;;;;;6.97;3.60;;;8.40;99.90;;;;;;5138649;27;20047;-75
2021/12/19 09:12:27;;;;;;;8.35;3.47;;;8.40;99.90;;;;;;5139251;27;20068;-75
2021/12/19 09:14:53;;;;;;;4.18;2.72;;;8.40;99.90;;;;;;5139309;27;20656;-68
2021/12/19 09:17:25;;;;;;;8.94;3.44;;;8.40;99.90;;;;;;4647161;27;10000628;-68
2021/12/19 09:19:51;;;;;;;11.45;4.25;;;8.40;99.90;;;;;;5117043;27;20559;-74
2021/12/19 09:22:17;;;;;;;9.82;3.92;;;8.40;99.90;;;;;;5118430;27;20054;-74
2021/12/19 09:24:42;;;;;;;5.85;3.80;;;8.40;99.90;;;;;;5136463;27;20046;-74
2021/12/19 09:27:09;;;;;;;7.97;2.90;;;8.40;99.90;;;;;;5136085;27;20046;-74
2021/12/19 09:29:35;;;;;;;9.50;3.67;;;8.40;99.90;;;;;;5116910;27;20043;-74
2021/12/19 09:32:02;;;;;;;5.00;3.55;;;8.40;99.90;;;;;;5115356;27;20204;-74
2021/12/19 09:34:28;;;;;;;5.43;3.45;;;8.40;99.90;;;;;;5116427;27;20047;-74
2021/12/19 09:36:54;;;;;;;12.15;2.95;;;8.40;99.90;;;;;;5116723;27;20053;-74
2021/12/19 09:39:20;;;;;;;9.73;3.60;;;8.40;99.90;;;;;;5135160;27;20796;-74
2021/12/19 09:41:46;;;;;;;12.27;3.08;;;8.40;99.90;;;;;;5115370;27;20045;-74
2021/12/19 09:44:15;;;;;;;6.57;2.85;;;8.40;99.90;;;;;;5135416;27;20161;-74
2021/12/19 09:46:43;;;;;;;7.97;4.00;;;8.40;99.90;;;;;;5115973;27;20085;-74
2021/12/19 09:49:11;;;;;;;9.10;3.47;;;8.40;99.90;;;;;;5116387;27;20042;-74
2021/12/19 09:51:38;;;;;;;8.23;3.15;;;8.40;99.90;;;;;;5116855;27;20046;-74
2021/12/19 09:54:04;;;;;;;8.55;3.28;;;8.40;99.90;;;;;;5135854;27;20047;-74
2021/12/19 09:56:33;;;;;;;6.22;3.17;;;8.40;99.90;;;;;;5116958;27;20449;-73
2021/12/19 09:59:06;;;;;;;7.57;3.20;;;8.40;99.90;;;;;;5117551;27;20149;-74
2021/12/19 10:01:31;;;;;;;12.32;3.38;;;8.50;99.90;;;;;;5114913;27;20118;-74
2021/12/19 10:03:57;;;;;;;6.43;3.03;;;8.40;99.90;;;;;;5117044;27;20046;-74
2021/12/19 10:06:28;;;;;;;10.77;3.67;;;8.40;99.90;;;;;;5135250;27;20062;-73
2021/12/19 10:09:20;;;;;;;5.95;2.65;;;8.40;99.90;;;;;;5116618;27;20748;-74
2021/12/19 10:12:12;;;;;;;8.70;3.17;;;8.50;99.90;;;;;;5115879;27;20058;-73
2021/12/19 10:14:39;;;;;;;5.47;3.20;;;8.40;99.90;;;;;;5133729;27;20112;-73
2021/12/19 10:17:07;;;;;;;18.27;3.40;;;8.40;99.90;;;;;;5113082;27;20051;-73
2021/12/19 10:19:42;;;;;;;6.55;2.80;;;8.40;99.90;;;;;;5131907;27;20482;-74
2021/12/19 10:22:22;;;;;;;6.63;2.70;;;8.40;99.90;;;;;;5132931;27;20046;-73
2021/12/19 10:24:48;;;;;;;5.72;2.85;;;8.50;99.90;;;;;;4778368;27;10000443;-73
2021/12/19 10:27:37;;;;;;;5.20;2.55;;;8.50;99.90;;;;;;5122620;27;20078;-74
2021/12/19 10:30:28;;;;;;;6.07;2.75;;;8.50;99.90;;;;;;5138757;27;20046;-75
2021/12/19 10:33:04;;;;;;;10.85;3.65;;;8.50;99.90;;;;;;5129715;27;20051;-74
2021/12/19 10:35:33;;;;;;;7.75;2.80;;;8.50;99.90;;;;;;5121063;27;20461;-75
2021/12/19 10:38:00;;;;;;;10.50;2.80;;;8.50;99.90;;;;;;5139638;27;20134;-74
2021/12/19 10:40:26;;;;;;;6.32;2.97;;;8.50;99.90;;;;;;5121394;27;20046;-75
2021/12/19 10:42:59;;;;;;;5.80;2.67;;;8.50;99.90;;;;;;5119277;27;20046;-75
2021/12/19 10:45:48;;;;;;;8.57;2.92;;;8.50;99.90;;;;;;5120438;27;20043;-75
2021/12/19 10:48:22;;;;;;;7.45;3.78;;;8.50;99.90;;;;;;5120825;27;20050;-76
2021/12/19 10:50:49;;;;;;;11.93;3.58;;;8.50;99.90;;;;;;5120716;27;20054;-76
2021/12/19 10:53:15;;;;;;;5.43;2.42;;;8.50;99.90;;;;;;5121005;27;20131;-75
2021/12/19 10:55:47;;;;;;;8.75;2.83;;;8.60;99.90;;;;;;5120166;27;20054;-74
2021/12/19 10:58:30;;;;;;;8.85;2.67;;;8.60;99.90;;;;;;5121660;27;20397;-72
2021/12/19 11:01:03;;;;;;;7.55;2.83;;;8.60;99.90;;;;;;5122684;27;20051;-75
2021/12/19 11:03:52;;;;;;;8.55;3.75;;;8.60;99.90;;;;;;5122514;27;20076;-74
2021/12/19 11:06:19;;;;;;;5.82;2.30;;;8.60;99.90;;;;;;5119921;27;20051;-76
2021/12/19 11:08:45;;;;;;;6.32;2.92;;;8.60;99.90;;;;;;5116901;27;20101;-76
2021/12/19 11:11:12;;;;;;;8.50;2.95;;;8.70;99.90;;;;;;5116172;27;20141;-76
2021/12/19 11:13:38;;;;;;;6.03;2.50;;;8.70;99.90;;;;;;5117912;27;20478;-76
2021/12/19 11:16:04;;;;;;;4.03;2.00;;;8.70;99.90;;;;;;5139492;27;20042;-76
2021/12/19 11:18:30;;;;;;;9.38;2.30;;;8.80;99.90;;;;;;5119087;27;20766;-76
2021/12/19 11:20:57;;;;;;;5.57;2.35;;;8.80;99.90;;;;;;5118286;27;20070;-76
2021/12/19 11:23:23;;;;;;;14.88;2.55;;;8.80;99.90;;;;;;5119526;27;20103;-76
2021/12/19 11:25:49;;;;;;;13.82;3.13;;;8.80;99.90;;;;;;5135785;27;20466;-76
2021/12/19 11:28:15;;;;;;;8.10;2.97;;;8.80;99.90;;;;;;5117624;27;20047;-76
2021/12/19 11:30:41;;;;;;;6.10;2.33;;;8.80;99.90;;;;;;5137305;27;20651;-76
2021/12/19 11:33:28;;;;;;;5.07;2.75;;;8.80;99.90;;;;;;5137447;27;20114;-77
2021/12/19 11:35:55;;;;;;;8.07;2.70;;;8.80;99.90;;;;;;5136169;27;20046;-78
2021/12/19 11:38:23;;;;;;;7.93;2.40;;;8.80;99.90;;;;;;5138071;27;20042;-77
2021/12/19 11:40:51;;;;;;;10.05;3.08;;;8.90;99.90;;;;;;5138074;27;20560;-76
2021/12/19 11:43:16;;;;;;;4.05;2.75;;;8.90;99.90;;;;;;5119602;27;20091;-77
2021/12/19 11:45:53;;;;;;;8.43;3.22;;;8.90;99.90;;;;;;5119182;27;20127;-77
2021/12/19 11:48:26;;;;;;;6.47;2.53;;;8.90;99.90;;;;;;5118156;27;20054;-76
2021/12/19 11:51:00;;;;;;;6.60;2.60;;;8.90;99.90;;;;;;5118053;27;20031;-76
2021/12/19 11:53:41;;;;;;;9.60;3.45;;;8.90;99.90;;;;;;5137691;27;20043;-76
2021/12/19 11:56:09;;;;;;;7.53;2.85;;;8.90;99.90;;;;;;5118047;27;20053;-76
2021/12/19 11:58:45;;;;;;;8.13;2.63;;;9.00;99.90;;;;;;5117530;27;20050;-76
2021/12/19 12:01:19;;;;;;;8.35;2.80;;;9.00;99.90;;;;;;5134626;27;20154;-76
2021/12/19 12:03:51;;;;;;;8.50;2.88;;;9.00;99.90;;;;;;5136401;27;20133;-76
2021/12/19 12:06:16;;;;;;;11.23;3.83;;;9.00;99.90;;;;;;5137939;27;20070;-76
2021/12/19 12:09:06;;;;;;;8.30;3.67;;;9.00;99.90;;;;;;5136927;27;20157;-76
2021/12/19 12:11:33;;;;;;;12.00;3.47;;;9.00;99.90;;;;;;5118401;27;20054;-76
2021/12/19 12:14:27;;;;;;;10.32;3.50;;;9.80;99.90;;;;;;5118477;27;20059;-76
2021/12/19 12:16:54;;;;;;;;;;;9.00;99.90;;;;;;5115365;27;20482;-76
2021/12/19 12:19:49;;;;;;;7.45;2.90;;;8.90;99.90;;;;;;5137063;27;19923;-76
2021/12/19 12:25:11;;;;;;;8.40;3.83;;;9.00;99.90;;;;;;5137034;27;20039;-76
2021/12/19 12:27:39;;;;;;;11.25;3.15;;;9.00;99.90;;;;;;5115021;27;20050;-76
2021/12/19 12:30:12;;;;;;;24.33;4.22;;;9.00;99.90;;;;;;5116971;27;20046;-75
2021/12/19 12:32:38;;;;;;;5.82;3.28;;;9.10;99.90;;;;;;5117347;27;20121;-76
2021/12/19 12:35:05;;;;;;;8.90;3.30;;;9.00;99.90;;;;;;5117415;27;20054;-75
2021/12/19 12:37:33;;;;;;;12.27;3.95;;;9.00;99.90;;;;;;5114370;27;20061;-76
2021/12/19 12:40:19;;;;;;;8.27;4.10;;;9.10;99.90;;;;;;5116019;27;20038;-75
2021/12/19 12:42:58;;;;;;;9.77;3.53;;;9.00;99.90;;;;;;5117629;27;20047;-76
2021/12/19 12:45:25;;;;;;;10.32;4.13;;;9.00;99.90;;;;;;5116125;27;20289;-76
2021/12/19 12:47:51;;;;;;;8.02;3.33;;;9.00;99.90;;;;;;5117512;27;20050;-76
2021/12/19 12:50:17;;;;;;;14.20;4.30;;;9.10;99.90;;;;;;5137417;27;20050;-76
2021/12/19 12:52:42;;;;;;;15.90;3.38;;;9.00;99.90;;;;;;5118655;27;20046;-75
2021/12/19 12:55:08;;;;;;;11.18;3.90;;;9.00;99.90;;;;;;5118661;27;20046;-76
2021/12/19 12:57:36;;;;;;;13.32;4.72;;;9.00;99.90;;;;;;5137176;27;20824;-76
2021/12/19 13:00:03;;;;;;;9.88;3.90;;;9.00;99.90;;;;;;5117691;27;20050;-75
2021/12/19 13:02:41;;;;;;;12.43;3.50;;;9.00;99.90;;;;;;5117295;27;20046;-76
2021/12/19 13:05:12;;;;;;;10.20;3.67;;;8.90;99.90;;;;;;5115533;27;20047;-75
2021/12/19 13:07:38;;;;;;;17.77;4.78;;;9.00;99.90;;;;;;5118183;27;20141;-76
2021/12/19 13:10:05;;;;;;;9.27;3.53;;;8.90;99.90;;;;;;5118227;27;20050;-75
2021/12/19 13:12:37;;;;;;;12.43;4.30;;;8.90;99.90;;;;;;5117898;27;20066;-76
2021/12/19 13:15:09;;;;;;;7.95;3.63;;;8.90;99.90;;;;;;5118252;27;20054;-76
2021/12/19 13:17:40;;;;;;;7.80;3.38;;;8.90;99.90;;;;;;5117260;27;20043;-76
2021/12/19 13:20:12;;;;;;;16.65;5.30;;;8.90;99.90;;;;;;5111750;27;20071;-76
2021/12/19 13:22:46;;;;;;;8.98;2.97;;;8.90;99.90;;;;;;5111813;27;20079;-75
2021/12/19 13:25:15;;;;;;;10.40;2.97;;;8.90;99.90;;;;;;5136333;27;20996;-75
2021/12/19 13:27:48;;;;;;;7.05;3.90;;;8.90;99.90;;;;;;5132435;27;20095;-75
2021/12/19 13:30:15;;;;;;;8.82;3.03;;;8.80;99.90;;;;;;5114066;27;20119;-75
2021/12/19 13:32:44;;;;;;;18.25;4.50;;;8.80;99.90;;;;;;5115340;27;20042;-75
2021/12/19 13:35:27;;;;;;;14.77;4.65;;;8.80;99.90;;;;;;5136885;27;20043;-75
2021/12/19 13:38:02;;;;;;;11.90;4.00;;;8.80;99.90;;;;;;5118216;27;20061;-75
2021/12/19 13:40:34;;;;;;;13.10;3.10;;;8.80;99.90;;;;;;5137230;27;20153;-76
2021/12/19 13:43:07;;;;;;;7.90;3.45;;;8.70;99.90;;;;;;5137274;27;20046;-76
2021/12/19 13:45:39;;;;;;;12.02;4.70;;;8.80;99.90;;;;;;5136344;27;20137;-76
2021/12/19 13:48:08;;;;;;;6.88;2.95;;;8.80;99.90;;;;;;5117251;27;20219;-75
2021/12/19 13:50:44;;;;;;;8.93;2.97;;;8.90;99.90;;;;;;5117616;27;20042;-76
2021/12/19 13:53:11;;;;;;;10.25;2.97;;;8.90;99.90;;;;;;5136746;27;20060;-76
2021/12/19 13:55:41;;;;;;;7.10;3.25;;;8.90;99.90;;;;;;5117202;27;20046;-76
2021/12/19 13:58:09;;;;;;;6.00;3.03;;;8.90;99.90;;;;;;5136150;27;20055;-76
2021/12/19 14:00:38;;;;;;;10.05;3.45;;;9.00;99.90;;;;;;5135603;27;20043;-76
2021/12/19 14:03:04;;;;;;;8.23;3.90;;;8.90;99.90;;;;;;5118268;27;20046;-76
2021/12/19 14:05:46;;;;;;;10.02;3.40;;;9.00;99.90;;;;;;5136886;27;20058;-75
2021/12/19 14:08:27;;;;;;;18.92;3.63;;;9.00;99.90;;;;;;5117637;27;20916;-76
2021/12/19 14:11:15;;;;;;;7.13;3.22;;;9.00;99.90;;;;;;5136336;27;20134;-76
2021/12/19 14:13:43;;;;;;;6.18;3.03;;;9.00;99.90;;;;;;5136925;27;20079;-75
2021/12/19 14:16:15;;;;;;;15.70;3.35;;;9.00;99.90;;;;;;5136547;27;20134;-76